Terminal Aerodrome Forecast
Issued by NWS Amarillo, TX

Home | Current Version | Previous Version | Text Only | Print | Product List | Glossary On
Versions: 1 2 3 4 5 6 7 8 9 10 11 12 13 14 15 16 17 18 19 20 21 22 23 24 25
000
FTUS44 KAMA 030500
TAFAMA
TAF
KAMA 030520Z 0306/0406 14009KT P6SM VCTS SCT030CB BKN120 OVC300
     FM031000 14009KT P6SM SCT012 BKN120 OVC300
     FM031500 17013KT P6SM SCT035 BKN300
     FM032000 16014KT P6SM SCT040 BKN300=

USA.gov is the U.S. government's official web portal to all federal, state and local government web resources and services.